createdAt,value
2022-10-05T00:00:47.539Z,5.57
2022-10-05T00:03:15.683Z,5.43
2022-10-05T00:05:46.015Z,5.63
2022-10-05T00:08:17.053Z,5.03
2022-10-05T00:10:46.860Z,3.77
2022-10-05T00:13:17.995Z,4.47
2022-10-05T00:15:45.942Z,4.57
2022-10-05T00:18:16.826Z,4.80
2022-10-05T00:20:45.627Z,4.77
2022-10-05T00:23:19.101Z,5.10
2022-10-05T00:25:49.306Z,4.57
2022-10-05T00:28:21.482Z,5.17
2022-10-05T00:30:49.622Z,9.47
2022-10-05T00:33:17.239Z,4.93
2022-10-05T00:35:45.428Z,5.80
2022-10-05T00:38:13.617Z,6.50
2022-10-05T00:40:57.053Z,6.80
2022-10-05T00:43:45.360Z,7.80
2022-10-05T00:46:21.754Z,5.10
2022-10-05T00:48:59.792Z,6.93
2022-10-05T00:51:31.147Z,4.57
2022-10-05T00:54:18.462Z,4.80
2022-10-05T00:57:11.561Z,6.13
2022-10-05T00:59:51.014Z,7.13
2022-10-05T01:02:35.795Z,6.17
2022-10-05T01:05:10.648Z,5.10
2022-10-05T01:07:48.749Z,5.10
2022-10-05T01:10:24.283Z,5.43
2022-10-05T01:13:03.758Z,4.77
2022-10-05T01:15:38.150Z,5.77
2022-10-05T01:18:12.795Z,5.70
2022-10-05T01:20:56.570Z,4.87
2022-10-05T01:23:59.017Z,4.80
2022-10-05T01:26:51.504Z,4.10
2022-10-05T01:29:24.905Z,5.70
2022-10-05T01:31:57.858Z,4.70
2022-10-05T01:34:34.418Z,4.50
2022-10-05T01:37:08.038Z,5.03
2022-10-05T01:39:41.910Z,5.73
2022-10-05T01:42:18.619Z,4.00
2022-10-05T01:44:55.885Z,5.10
2022-10-05T01:47:36.550Z,4.90
2022-10-05T01:50:13.001Z,5.43
2022-10-05T01:52:49.394Z,4.57
2022-10-05T01:55:30.805Z,5.53
2022-10-05T01:58:13.608Z,4.10
2022-10-05T02:00:50.814Z,6.03
2022-10-05T02:03:22.141Z,6.17
2022-10-05T02:05:56.850Z,3.97
2022-10-05T02:08:31.118Z,4.97
2022-10-05T02:11:03.518Z,5.00
2022-10-05T02:13:37.431Z,5.27
2022-10-05T02:16:12.081Z,6.37
2022-10-05T02:18:42.901Z,7.33
2022-10-05T02:21:11.483Z,4.53
2022-10-05T02:23:44.133Z,5.30
2022-10-05T02:26:13.580Z,8.47
2022-10-05T02:28:47.373Z,5.70
2022-10-05T02:31:20.553Z,8.53
2022-10-05T02:33:49.621Z,6.70
2022-10-05T02:36:25.744Z,5.80
2022-10-05T02:39:04.044Z,6.70
2022-10-05T02:41:43.424Z,5.33
2022-10-05T02:44:20.893Z,4.40
2022-10-05T02:47:00.615Z,8.80
2022-10-05T02:49:35.394Z,7.47
2022-10-05T02:52:12.382Z,8.13
2022-10-05T02:54:49.932Z,3.70
2022-10-05T02:57:28.109Z,5.03
2022-10-05T03:00:04.330Z,5.43
2022-10-05T03:02:42.984Z,4.23
2022-10-05T03:05:20.382Z,4.50
2022-10-05T03:07:56.719Z,4.83
2022-10-05T03:10:30.842Z,4.97
2022-10-05T03:13:03.658Z,4.60
2022-10-05T03:15:50.992Z,3.63
2022-10-05T03:18:33.767Z,6.40
2022-10-05T03:21:12.416Z,7.57
2022-10-05T03:24:03.159Z,4.53
2022-10-05T03:26:42.120Z,5.63
2022-10-05T03:29:24.858Z,7.57
2022-10-05T03:32:01.726Z,7.57
2022-10-05T03:34:38.909Z,4.97
2022-10-05T03:37:17.029Z,5.00
2022-10-05T03:39:53.206Z,5.50
2022-10-05T03:42:31.547Z,4.37
2022-10-05T03:45:10.222Z,4.83
2022-10-05T03:47:47.091Z,6.60
2022-10-05T03:50:29.924Z,6.60
2022-10-05T03:53:04.108Z,4.43
2022-10-05T03:55:38.710Z,7.70
2022-10-05T03:58:17.826Z,5.17
2022-10-05T04:00:51.888Z,4.53
2022-10-05T04:03:25.239Z,4.90
2022-10-05T04:05:59.381Z,5.67
2022-10-05T04:08:36.330Z,7.20
2022-10-05T04:11:11.197Z,7.30
2022-10-05T04:13:44.358Z,6.10
2022-10-05T04:16:16.181Z,10.77
2022-10-05T04:18:50.183Z,6.40
2022-10-05T04:21:24.626Z,8.27
2022-10-05T04:24:00.276Z,8.17
2022-10-05T04:26:35.962Z,8.23
2022-10-05T04:29:11.799Z,7.07
2022-10-05T04:31:53.462Z,5.10
2022-10-05T04:34:37.379Z,6.50
2022-10-05T04:37:15.473Z,4.17
2022-10-05T04:39:50.067Z,6.03
2022-10-05T04:42:29.974Z,6.57
2022-10-05T04:45:09.841Z,4.83
2022-10-05T04:48:20.777Z,4.40
2022-10-05T04:50:59.596Z,6.50
2022-10-05T04:53:34.535Z,6.60
2022-10-05T04:56:11.369Z,5.53
2022-10-05T04:59:01.866Z,7.23
2022-10-05T05:01:47.203Z,5.17
2022-10-05T05:04:42.140Z,6.70
2022-10-05T05:07:23.622Z,4.20
2022-10-05T05:10:36.557Z,5.20
2022-10-05T05:13:18.665Z,4.07
2022-10-05T05:15:53.301Z,4.83
2022-10-05T05:18:43.325Z,5.23
2022-10-05T05:21:19.211Z,4.23
2022-10-05T05:23:56.958Z,4.87
2022-10-05T05:26:38.977Z,5.10
2022-10-05T05:29:18.879Z,3.70
2022-10-05T05:31:53.061Z,4.97
2022-10-05T05:34:40.080Z,6.50
2022-10-05T05:37:17.950Z,7.27
2022-10-05T05:39:55.578Z,4.30
2022-10-05T05:42:37.241Z,4.37
2022-10-05T05:45:15.746Z,8.40
2022-10-05T05:47:51.979Z,5.10
2022-10-05T05:50:34.384Z,5.17
2022-10-05T05:53:11.233Z,4.40
2022-10-05T05:55:43.067Z,6.60
2022-10-05T05:58:19.815Z,8.17
2022-10-05T06:00:53.911Z,4.57
2022-10-05T06:03:28.776Z,5.77
2022-10-05T06:06:00.856Z,7.00
2022-10-05T06:08:36.369Z,4.83
2022-10-05T06:11:18.095Z,5.07
2022-10-05T06:13:48.959Z,5.23
2022-10-05T06:16:24.001Z,5.77
2022-10-05T06:18:57.036Z,7.23
2022-10-05T06:21:31.237Z,7.50
2022-10-05T06:24:05.055Z,6.30
2022-10-05T06:26:59.999Z,5.43
2022-10-05T06:29:41.605Z,6.50
2022-10-05T06:32:22.603Z,7.47
2022-10-05T06:35:01.614Z,6.27
2022-10-05T06:37:49.759Z,6.90
2022-10-05T06:40:28.905Z,5.90
2022-10-05T06:43:09.459Z,8.00
2022-10-05T06:45:53.317Z,5.10
2022-10-05T06:49:06.807Z,8.27
2022-10-05T06:52:03.285Z,7.43
2022-10-05T06:54:53.215Z,7.77
2022-10-05T06:57:40.877Z,6.03
2022-10-05T07:00:18.740Z,6.63
2022-10-05T07:02:55.327Z,6.10
2022-10-05T07:05:56.499Z,6.93
2022-10-05T07:08:38.142Z,6.93
2022-10-05T07:11:12.445Z,9.83
2022-10-05T07:14:01.539Z,8.27
2022-10-05T07:16:42.594Z,10.77
2022-10-05T07:19:33.203Z,9.63
2022-10-05T07:22:31.794Z,11.67
2022-10-05T07:25:11.698Z,9.10
2022-10-05T07:27:50.932Z,9.60
2022-10-05T07:30:21.180Z,8.70
2022-10-05T07:33:00.036Z,8.33
2022-10-05T07:35:58.990Z,8.87
2022-10-05T07:38:33.631Z,7.57
2022-10-05T07:41:07.633Z,8.27
2022-10-05T07:44:01.549Z,8.20
2022-10-05T07:46:45.006Z,7.40
2022-10-05T07:49:23.426Z,6.20
2022-10-05T07:51:59.451Z,7.93
2022-10-05T07:54:37.836Z,7.13
2022-10-05T07:57:20.084Z,6.30
2022-10-05T07:59:57.186Z,6.33
2022-10-05T08:02:30.089Z,6.30
2022-10-05T08:05:03.935Z,7.30
2022-10-05T08:07:36.751Z,4.97
2022-10-05T08:10:19.410Z,5.70
2022-10-05T08:12:59.410Z,5.53
2022-10-05T08:15:32.135Z,6.00
2022-10-05T08:18:03.149Z,6.20
2022-10-05T08:20:40.782Z,7.00
2022-10-05T08:23:26.638Z,8.57
2022-10-05T08:35:05.786Z,4.87
2022-10-05T08:37:38.172Z,10.10
2022-10-05T08:40:30.139Z,5.60
2022-10-05T08:43:12.640Z,7.70
2022-10-05T08:46:14.833Z,6.57
2022-10-05T08:49:13.537Z,6.70
2022-10-05T08:52:13.123Z,6.60
2022-10-05T08:55:02.470Z,5.80
2022-10-05T08:57:56.032Z,5.83
2022-10-05T09:00:24.916Z,5.90
2022-10-05T09:03:16.908Z,5.93
2022-10-05T09:06:14.375Z,8.27
2022-10-05T09:09:19.351Z,8.27
2022-10-05T09:12:02.170Z,6.00
2022-10-05T09:15:20.555Z,6.53
2022-10-05T09:18:07.167Z,7.23
2022-10-05T09:20:51.780Z,7.60
2022-10-05T09:23:37.374Z,6.13
2022-10-05T09:26:10.235Z,10.80
2022-10-05T09:28:57.787Z,5.70
2022-10-05T09:31:42.070Z,5.27
2022-10-05T09:34:43.069Z,5.00
2022-10-05T09:37:55.038Z,8.40
2022-10-05T09:41:00.949Z,5.20
2022-10-05T09:44:06.456Z,6.60
2022-10-05T09:46:55.555Z,10.63
2022-10-05T09:49:53.049Z,5.60
2022-10-05T09:52:46.549Z,5.27
2022-10-05T09:55:51.764Z,5.07
2022-10-05T09:58:50.010Z,5.13
2022-10-05T10:01:38.289Z,7.77
2022-10-05T10:04:25.629Z,4.83
2022-10-05T10:07:24.438Z,5.70
2022-10-05T10:10:07.636Z,4.77
2022-10-05T10:12:42.331Z,5.90
2022-10-05T10:15:48.268Z,5.70
2022-10-05T10:18:40.949Z,4.90
2022-10-05T10:21:30.938Z,6.17
2022-10-05T10:24:14.390Z,5.07
2022-10-05T10:27:01.483Z,5.47
2022-10-05T10:30:19.037Z,6.87
2022-10-05T10:33:21.483Z,6.10
2022-10-05T10:36:00.553Z,5.47
2022-10-05T10:38:42.413Z,6.70
2022-10-05T10:41:39.858Z,4.77
2022-10-05T10:44:47.100Z,4.73
2022-10-05T10:47:39.078Z,5.47
2022-10-05T10:50:36.655Z,4.40
2022-10-05T10:53:33.847Z,6.00
2022-10-05T10:56:23.635Z,6.10
2022-10-05T10:59:16.828Z,4.03
2022-10-05T11:01:58.011Z,4.23
2022-10-05T11:04:53.739Z,4.30
2022-10-05T11:07:48.441Z,4.47
2022-10-05T11:10:47.100Z,4.37
2022-10-05T11:13:36.185Z,3.53
2022-10-05T11:16:33.912Z,4.60
2022-10-05T11:19:52.820Z,3.67
2022-10-05T11:22:50.495Z,4.90
2022-10-05T11:25:44.322Z,4.47
2022-10-05T11:28:30.580Z,5.07
2022-10-05T11:31:18.785Z,4.43
2022-10-05T11:34:23.438Z,3.57
2022-10-05T11:37:32.194Z,5.37
2022-10-05T11:40:39.626Z,2.87
2022-10-05T11:43:25.198Z,7.30
2022-10-05T11:46:05.718Z,3.20
2022-10-05T11:48:46.902Z,3.33
2022-10-05T11:51:39.683Z,2.70
2022-10-05T11:54:19.238Z,2.63
2022-10-05T11:56:54.830Z,2.70
2022-10-05T11:59:31.820Z,3.37
2022-10-05T12:02:27.576Z,3.10
2022-10-05T12:05:01.287Z,5.77
2022-10-05T12:07:40.049Z,2.27
2022-10-05T12:10:31.356Z,3.50
2022-10-05T12:13:15.056Z,2.90
2022-10-05T12:15:49.198Z,2.83
2022-10-05T12:18:23.145Z,2.90
2022-10-05T12:20:55.190Z,2.67
2022-10-05T12:23:28.835Z,2.20
2022-10-05T12:26:02.959Z,3.00
2022-10-05T12:28:38.158Z,3.53
2022-10-05T12:31:21.532Z,3.53
2022-10-05T12:33:58.412Z,2.50
2022-10-05T12:36:52.488Z,3.27
2022-10-05T12:39:29.134Z,2.20
2022-10-05T12:42:08.049Z,2.97
2022-10-05T12:44:50.819Z,2.40
2022-10-05T12:47:26.894Z,2.90
2022-10-05T12:50:04.260Z,4.07
2022-10-05T12:52:50.501Z,1.83
2022-10-05T12:55:26.164Z,3.13
2022-10-05T12:58:05.779Z,2.93
2022-10-05T13:00:40.291Z,2.80
2022-10-05T13:03:17.337Z,2.63
2022-10-05T13:05:53.432Z,2.50
2022-10-05T13:08:32.434Z,1.97
2022-10-05T13:11:12.731Z,2.50
2022-10-05T13:13:53.990Z,2.53
2022-10-05T13:16:34.046Z,5.07
2022-10-05T13:19:22.178Z,2.40
2022-10-05T13:22:23.595Z,1.80
2022-10-05T13:25:03.096Z,1.80
2022-10-05T13:27:32.805Z,2.07
2022-10-05T13:30:04.860Z,1.80
2022-10-05T13:32:37.032Z,1.83
2022-10-05T13:35:23.903Z,2.60
2022-10-05T13:38:02.913Z,2.30
2022-10-05T13:40:36.564Z,4.57
2022-10-05T13:43:14.464Z,1.70
2022-10-05T13:45:52.697Z,2.00
2022-10-05T13:48:47.283Z,1.33
2022-10-05T13:51:21.093Z,1.23
2022-10-05T13:53:50.874Z,1.87
2022-10-05T13:56:22.601Z,1.60
2022-10-05T13:58:55.600Z,3.50
2022-10-05T14:01:35.968Z,1.03
2022-10-05T14:04:17.480Z,2.13
2022-10-05T14:06:46.319Z,1.07
2022-10-05T14:09:27.465Z,1.10
2022-10-05T14:12:11.802Z,1.17
2022-10-05T14:14:46.040Z,1.47
2022-10-05T14:17:16.820Z,0.70
2022-10-05T14:19:51.046Z,1.47
2022-10-05T14:22:23.044Z,0.93
2022-10-05T14:24:55.110Z,1.90
2022-10-05T14:27:25.635Z,1.23
2022-10-05T14:29:59.668Z,1.27
2022-10-05T14:32:31.434Z,0.83
2022-10-05T14:35:16.307Z,0.77
2022-10-05T14:37:48.426Z,1.83
2022-10-05T14:40:32.800Z,0.67
2022-10-05T14:43:06.907Z,0.80
2022-10-05T14:45:35.491Z,0.93
2022-10-05T14:48:10.816Z,0.70
2022-10-05T14:50:55.006Z,1.10
2022-10-05T14:53:25.199Z,1.07
2022-10-05T14:56:17.504Z,0.90
2022-10-05T14:59:13.915Z,1.60
2022-10-05T15:01:50.144Z,1.10
2022-10-05T15:04:30.759Z,1.10
2022-10-05T15:07:14.859Z,1.13
2022-10-05T15:10:05.257Z,1.20
2022-10-05T15:12:39.712Z,1.10
2022-10-05T15:15:17.926Z,3.30
2022-10-05T15:17:55.282Z,2.47
2022-10-05T15:20:33.737Z,1.97
2022-10-05T15:23:17.277Z,1.17
2022-10-05T15:25:52.378Z,1.13
2022-10-05T15:28:30.886Z,1.37
2022-10-05T15:31:05.261Z,1.37
2022-10-05T15:33:37.445Z,1.10
2022-10-05T15:36:12.983Z,1.20
2022-10-05T15:39:00.243Z,3.60
2022-10-05T15:41:42.008Z,1.10
2022-10-05T15:44:19.796Z,1.90
2022-10-05T15:46:57.923Z,0.70
2022-10-05T15:49:33.785Z,1.20
2022-10-05T15:52:09.854Z,3.30
2022-10-05T15:55:16.226Z,1.37
2022-10-05T15:57:51.023Z,2.00
2022-10-05T16:00:20.768Z,1.50
2022-10-05T16:02:55.668Z,0.90
2022-10-05T16:05:57.991Z,1.00
2022-10-05T16:08:54.629Z,2.63
2022-10-05T16:11:43.135Z,1.03
2022-10-05T16:14:28.159Z,1.80
2022-10-05T16:17:10.721Z,1.90
2022-10-05T16:19:49.123Z,1.57
2022-10-05T16:22:28.873Z,1.27
2022-10-05T16:25:08.350Z,2.90
2022-10-05T16:27:47.750Z,1.90
2022-10-05T16:30:19.056Z,2.53
2022-10-05T16:32:54.788Z,1.30
2022-10-05T16:35:35.946Z,4.70
2022-10-05T16:38:25.639Z,3.13
2022-10-05T16:41:03.814Z,1.37
2022-10-05T16:43:44.781Z,2.17
2022-10-05T16:46:22.362Z,3.93
2022-10-05T16:48:59.504Z,2.40
2022-10-05T16:51:40.802Z,2.70
2022-10-05T16:54:19.046Z,9.43
2022-10-05T16:56:52.758Z,3.13
2022-10-05T17:00:04.941Z,5.13
2022-10-05T17:02:52.188Z,4.50
2022-10-05T17:05:35.377Z,3.40
2022-10-05T17:08:21.696Z,4.70
2022-10-05T17:11:02.485Z,2.20
2022-10-05T17:13:44.427Z,3.03
2022-10-05T17:16:23.942Z,5.43
2022-10-05T17:19:27.707Z,4.07
2022-10-05T17:22:00.563Z,2.37
2022-10-05T17:24:42.685Z,3.87
2022-10-05T17:27:26.806Z,1.80
2022-10-05T17:29:56.331Z,5.83
2022-10-05T17:32:56.520Z,4.60
2022-10-05T17:35:42.994Z,2.90
2022-10-05T17:38:17.167Z,3.53
2022-10-05T17:41:21.345Z,2.80
2022-10-05T17:44:20.959Z,2.70
2022-10-05T17:46:51.161Z,3.13
2022-10-05T17:49:24.078Z,3.37
2022-10-05T17:52:18.455Z,4.73
2022-10-05T17:55:19.235Z,2.70
2022-10-05T17:57:47.089Z,3.93
2022-10-05T18:00:42.009Z,3.23
2022-10-05T18:03:40.706Z,3.13
2022-10-05T18:06:37.438Z,3.83
2022-10-05T18:09:38.025Z,2.90
2022-10-05T18:12:43.777Z,3.07
2022-10-05T18:15:48.352Z,10.60
2022-10-05T18:18:56.299Z,4.10
2022-10-05T18:21:40.117Z,5.47
2022-10-05T18:24:34.237Z,4.73
2022-10-05T18:27:17.463Z,3.17
2022-10-05T18:30:06.656Z,6.50
2022-10-05T18:32:51.949Z,3.73
2022-10-05T18:35:24.898Z,5.83
2022-10-05T18:38:06.140Z,3.50
2022-10-05T18:40:48.608Z,4.90
2022-10-05T18:43:30.065Z,3.93
2022-10-05T18:46:12.188Z,9.10
2022-10-05T18:48:50.345Z,4.23
2022-10-05T18:51:26.212Z,4.20
2022-10-05T18:54:07.675Z,3.43
2022-10-05T18:56:39.414Z,3.43
2022-10-05T18:59:25.559Z,4.50
2022-10-05T19:02:06.271Z,4.20
2022-10-05T19:04:50.905Z,6.40
2022-10-05T19:07:30.676Z,3.83
2022-10-05T19:10:09.758Z,5.27
2022-10-05T19:12:51.600Z,9.93
2022-10-05T19:15:27.695Z,4.13
2022-10-05T19:18:13.973Z,4.93
2022-10-05T19:20:48.089Z,4.40
2022-10-05T19:23:48.058Z,4.57
2022-10-05T19:26:18.919Z,5.60
2022-10-05T19:29:02.293Z,7.40
2022-10-05T19:43:25.554Z,3.93
2022-10-05T19:46:07.052Z,9.17
2022-10-05T19:48:43.878Z,5.93
2022-10-05T19:51:17.762Z,8.10
2022-10-05T19:53:50.907Z,8.00
2022-10-05T19:56:20.775Z,3.23
2022-10-05T19:58:51.918Z,4.10
2022-10-05T20:01:27.611Z,4.70
2022-10-05T20:03:57.945Z,4.80
2022-10-05T20:06:26.878Z,3.30
2022-10-05T20:08:58.389Z,4.50
2022-10-05T20:11:27.852Z,5.00
2022-10-05T20:14:22.310Z,3.40
2022-10-05T20:17:37.592Z,4.53
2022-10-05T20:20:36.561Z,4.77
2022-10-05T20:23:24.430Z,8.50
2022-10-05T20:26:11.310Z,5.03
2022-10-05T20:28:39.356Z,7.17
2022-10-05T20:31:09.137Z,5.00
2022-10-05T20:33:36.888Z,5.67
2022-10-05T20:36:05.227Z,6.20
2022-10-05T20:38:40.016Z,5.60
2022-10-05T20:41:08.757Z,5.20
2022-10-05T20:43:38.949Z,4.87
2022-10-05T20:46:08.632Z,3.60
2022-10-05T20:48:36.495Z,5.27
2022-10-05T20:51:04.789Z,4.23
2022-10-05T20:53:32.758Z,13.17
2022-10-05T20:56:02.427Z,5.90
2022-10-05T20:58:30.606Z,4.83
2022-10-05T21:01:19.784Z,7.30
2022-10-05T21:03:50.159Z,3.67
2022-10-05T21:06:18.920Z,3.60
2022-10-05T21:08:47.539Z,3.60
2022-10-05T21:11:15.469Z,4.80
2022-10-05T21:13:45.091Z,5.37
2022-10-05T21:16:14.252Z,5.87
2022-10-05T21:18:42.776Z,8.20
2022-10-05T21:21:12.455Z,6.13
2022-10-05T21:23:40.103Z,4.43
2022-10-05T21:26:12.046Z,2.77
2022-10-05T21:28:40.166Z,3.90
2022-10-05T21:31:08.070Z,3.27
2022-10-05T21:33:36.342Z,5.13
2022-10-05T21:36:04.503Z,4.07
2022-10-05T21:38:33.933Z,5.07
2022-10-05T21:41:02.042Z,4.53
2022-10-05T21:43:30.117Z,6.17
2022-10-05T21:45:59.315Z,8.40
2022-10-05T21:48:27.411Z,8.40
2022-10-05T21:50:55.924Z,6.80
2022-10-05T21:53:27.971Z,10.13
2022-10-05T21:56:02.178Z,5.27
2022-10-05T21:58:31.643Z,5.37
2022-10-05T22:00:59.389Z,4.87
2022-10-05T22:03:27.803Z,5.13
2022-10-05T22:05:55.894Z,4.53
2022-10-05T22:08:26.591Z,3.97
2022-10-05T22:10:55.357Z,4.33
2022-10-05T22:13:26.015Z,7.17
2022-10-05T22:15:55.824Z,6.30
2022-10-05T22:18:25.640Z,6.67
2022-10-05T22:20:54.127Z,4.67
2022-10-05T22:23:21.738Z,4.23
2022-10-05T22:25:50.415Z,4.03
2022-10-05T22:28:18.509Z,4.97
2022-10-05T22:30:47.762Z,3.90
2022-10-05T22:33:15.649Z,5.17
2022-10-05T22:35:43.270Z,4.43
2022-10-05T22:38:11.698Z,4.20
2022-10-05T22:40:39.267Z,8.30
2022-10-05T22:43:07.562Z,4.40
2022-10-05T22:45:35.624Z,5.63
2022-10-05T22:48:05.226Z,4.37
2022-10-05T22:50:32.842Z,4.87
2022-10-05T22:53:00.567Z,5.53
2022-10-05T22:55:28.417Z,5.10
2022-10-05T22:57:56.234Z,12.23
2022-10-05T23:00:35.257Z,4.30
2022-10-05T23:03:13.868Z,6.23
2022-10-05T23:05:41.923Z,6.03
2022-10-05T23:08:10.238Z,6.57
2022-10-05T23:10:37.786Z,6.63
2022-10-05T23:13:06.271Z,4.97
2022-10-05T23:15:34.312Z,7.17
2022-10-05T23:18:02.346Z,5.73
2022-10-05T23:20:31.261Z,6.80
2022-10-05T23:23:00.330Z,7.37
2022-10-05T23:25:28.276Z,5.23
2022-10-05T23:27:55.886Z,4.80
2022-10-05T23:30:23.637Z,3.57
2022-10-05T23:32:51.640Z,4.73
2022-10-05T23:35:19.325Z,5.60
2022-10-05T23:37:48.923Z,8.47
2022-10-05T23:40:16.784Z,7.97
2022-10-05T23:42:44.575Z,8.10
2022-10-05T23:45:13.257Z,12.00
2022-10-05T23:47:41.551Z,5.40
2022-10-05T23:50:10.776Z,7.20
2022-10-05T23:52:38.570Z,7.20
2022-10-05T23:55:08.680Z,4.13
2022-10-05T23:57:36.318Z,12.13
